Time;durP1;ratioP1;P1;durP2;ratioP2;P2;SDS_P1;SDS_P2;PMS_P1;PMS_P2;Temp;Humidity;BMP_temperature;BMP_pressure;BME280_temperature;BME280_humidity;BME280_pressure;Samples;Min_cycle;Max_cycle;Signal;HPM_P1;HPM_P2
2023/06/18 00:01:42;;;;;;;34.40;21.80;;;17.50;99.90;;;;;;5041933;28;20026;-72
2023/06/18 00:04:08;;;;;;;36.60;22.98;;;17.50;99.90;;;;;;5041910;28;20053;-72
2023/06/18 00:06:34;;;;;;;32.03;21.60;;;17.50;99.90;;;;;;5040275;28;20447;-73
2023/06/18 00:08:59;;;;;;;35.63;22.45;;;17.50;99.90;;;;;;5040426;28;20030;-71
2023/06/18 00:11:25;;;;;;;38.10;22.33;;;17.50;99.90;;;;;;5039992;28;20433;-74
2023/06/18 00:13:50;;;;;;;35.35;22.95;;;17.50;99.90;;;;;;5041255;28;20029;-73
2023/06/18 00:16:16;;;;;;;42.33;24.13;;;17.40;99.90;;;;;;5040260;28;20029;-73
2023/06/18 00:18:42;;;;;;;40.95;22.95;;;17.40;99.90;;;;;;5041179;28;20053;-73
2023/06/18 00:21:10;;;;;;;37.53;22.23;;;17.40;99.90;;;;;;5040800;28;20021;-72
2023/06/18 00:23:36;;;;;;;33.58;22.10;;;17.30;99.90;;;;;;5043609;28;20048;-73
2023/06/18 00:26:01;;;;;;;36.63;23.25;;;17.40;99.90;;;;;;5043153;28;20589;-72
2023/06/18 00:28:28;;;;;;;36.60;22.83;;;17.20;99.90;;;;;;5044915;28;20029;-71
2023/06/18 00:30:54;;;;;;;32.80;22.63;;;17.20;99.90;;;;;;5044220;28;20021;-72
2023/06/18 00:33:20;;;;;;;36.28;22.90;;;17.20;99.90;;;;;;5044403;28;20096;-72
2023/06/18 00:35:46;;;;;;;34.63;21.65;;;17.20;99.90;;;;;;5043227;28;20049;-71
2023/06/18 00:38:11;;;;;;;37.28;23.00;;;17.10;99.90;;;;;;5043410;28;20075;-73
2023/06/18 00:40:37;;;;;;;38.25;23.20;;;17.10;99.90;;;;;;5044424;28;20037;-73
2023/06/18 00:43:03;;;;;;;35.75;22.90;;;17.10;99.90;;;;;;5043651;28;20026;-72
2023/06/18 00:45:30;;;;;;;32.35;21.77;;;17.00;99.90;;;;;;5042757;28;20079;-72
2023/06/18 00:48:00;;;;;;;36.72;22.95;;;17.00;99.90;;;;;;5042227;28;20029;-74
2023/06/18 00:50:26;;;;;;;31.45;21.52;;;17.00;99.90;;;;;;5044003;28;20105;-72
2023/06/18 00:52:59;;;;;;;34.17;21.92;;;17.00;99.90;;;;;;5043122;28;20044;-74
2023/06/18 00:55:28;;;;;;;42.22;23.35;;;17.00;99.90;;;;;;5042280;28;20072;-72
2023/06/18 00:57:59;;;;;;;35.92;22.25;;;17.00;99.90;;;;;;5044417;28;20025;-72
2023/06/18 01:00:25;;;;;;;36.50;23.50;;;16.90;99.90;;;;;;5043691;28;20028;-73
2023/06/18 01:02:53;;;;;;;37.67;23.35;;;16.90;99.90;;;;;;5044151;28;20033;-73
2023/06/18 01:05:19;;;;;;;34.60;23.23;;;16.80;99.90;;;;;;5044219;28;20052;-73
2023/06/18 01:07:48;;;;;;;36.70;23.35;;;16.90;99.90;;;;;;5044219;28;20024;-72
2023/06/18 01:10:15;;;;;;;38.42;23.10;;;16.80;99.90;;;;;;5044116;28;20466;-73
2023/06/18 01:12:45;;;;;;;35.97;23.10;;;16.70;99.90;;;;;;5044233;28;20064;-74
2023/06/18 01:15:12;;;;;;;36.15;22.80;;;16.70;99.90;;;;;;5042362;28;20103;-72
2023/06/18 01:17:40;;;;;;;35.85;23.02;;;16.70;99.90;;;;;;5043534;28;20025;-72
2023/06/18 01:20:11;;;;;;;38.13;24.98;;;16.60;99.90;;;;;;5042324;28;20457;-72
2023/06/18 01:23:01;;;;;;;36.58;22.85;;;16.70;99.90;;;;;;5043869;28;20029;-72
2023/06/18 01:25:32;;;;;;;36.33;23.30;;;16.60;99.90;;;;;;5058123;28;20026;-72
2023/06/18 01:28:00;;;;;;;37.00;24.50;;;16.70;99.90;;;;;;5042479;28;20059;-73
2023/06/18 01:30:26;;;;;;;37.67;24.67;;;16.50;99.90;;;;;;5043243;28;20466;-73
2023/06/18 01:32:54;;;;;;;36.20;23.90;;;16.60;99.90;;;;;;5041918;28;20047;-73
2023/06/18 01:35:21;;;;;;;38.50;24.40;;;16.50;99.90;;;;;;5042731;28;20089;-72
2023/06/18 01:38:14;;;;;;;40.60;24.02;;;16.40;99.90;;;;;;5042903;28;20041;-71
2023/06/18 01:40:54;;;;;;;41.10;24.85;;;16.40;99.90;;;;;;5043621;28;20026;-73
2023/06/18 01:43:49;;;;;;;42.28;25.88;;;16.40;99.90;;;;;;5043406;28;20026;-73
2023/06/18 01:46:23;;;;;;;39.47;25.13;;;16.40;99.90;;;;;;5043040;28;20041;-73
2023/06/18 01:48:58;;;;;;;44.53;27.58;;;16.40;99.90;;;;;;5041846;28;20567;-72
2023/06/18 01:51:25;;;;;;;45.72;27.15;;;16.40;99.90;;;;;;5041522;28;20029;-73
2023/06/18 01:53:54;;;;;;;45.88;28.10;;;16.60;99.90;;;;;;5043080;28;20026;-72
2023/06/18 01:56:22;;;;;;;45.47;28.77;;;16.40;99.90;;;;;;5042278;28;20029;-73
2023/06/18 01:58:47;;;;;;;49.65;29.23;;;16.50;99.90;;;;;;5042818;28;20089;-74
2023/06/18 02:01:13;;;;;;;44.28;28.58;;;16.50;99.90;;;;;;5043320;28;20025;-72
2023/06/18 02:03:39;;;;;;;49.03;29.40;;;16.50;99.90;;;;;;5042751;28;20029;-72
2023/06/18 02:06:05;;;;;;;46.58;28.98;;;16.50;99.90;;;;;;5041668;28;20041;-72
2023/06/18 02:08:31;;;;;;;49.45;28.98;;;16.50;99.90;;;;;;5041796;28;20052;-72
2023/06/18 02:10:56;;;;;;;44.67;28.48;;;16.40;99.90;;;;;;5041135;28;20037;-73
2023/06/18 02:13:22;;;;;;;46.42;28.50;;;16.50;99.90;;;;;;5041387;28;20030;-72
2023/06/18 02:15:48;;;;;;;47.03;28.88;;;16.50;99.90;;;;;;5042343;28;20029;-72
2023/06/18 02:18:14;;;;;;;46.33;28.35;;;16.50;99.90;;;;;;5042552;28;20078;-73
2023/06/18 02:20:41;;;;;;;46.53;27.67;;;16.50;99.90;;;;;;5041766;28;20075;-73
2023/06/18 02:23:07;;;;;;;46.25;28.25;;;16.60;99.90;;;;;;5041746;28;20014;-72
2023/06/18 02:25:33;;;;;;;51.30;28.35;;;16.50;99.90;;;;;;5041815;28;20028;-72
2023/06/18 02:28:00;;;;;;;45.90;26.83;;;16.40;99.90;;;;;;5042829;28;20018;-72
2023/06/18 02:30:28;;;;;;;39.58;25.20;;;16.50;99.90;;;;;;5041963;28;20033;-72
2023/06/18 02:32:55;;;;;;;40.97;26.00;;;16.40;99.90;;;;;;5040679;28;20380;-72
2023/06/18 02:35:20;;;;;;;34.72;20.98;;;16.40;99.90;;;;;;5042397;28;20033;-73
2023/06/18 02:37:46;;;;;;;27.27;17.83;;;16.30;99.90;;;;;;5042619;28;20013;-73
2023/06/18 02:40:14;;;;;;;32.75;20.38;;;16.30;99.90;;;;;;5042166;28;20064;-72
2023/06/18 02:42:46;;;;;;;30.38;17.30;;;16.20;99.90;;;;;;5042742;28;20111;-72
2023/06/18 02:45:13;;;;;;;23.60;15.70;;;16.20;99.90;;;;;;5041843;28;20017;-72
2023/06/18 02:47:39;;;;;;;22.38;15.13;;;16.10;99.90;;;;;;5040793;28;20024;-74
2023/06/18 02:50:06;;;;;;;22.25;15.73;;;16.00;99.90;;;;;;5041006;28;20041;-73
2023/06/18 02:52:31;;;;;;;28.55;16.27;;;15.90;99.90;;;;;;5041524;28;20033;-73
2023/06/18 02:54:57;;;;;;;25.73;15.88;;;15.90;99.90;;;;;;5040787;28;20037;-72
2023/06/18 02:57:22;;;;;;;25.40;14.77;;;15.70;99.90;;;;;;5040921;28;20476;-73
2023/06/18 02:59:48;;;;;;;22.00;14.70;;;15.80;99.90;;;;;;5040513;28;20132;-73
2023/06/18 03:02:15;;;;;;;26.30;14.95;;;15.70;99.90;;;;;;5042318;28;20049;-72
2023/06/18 03:04:40;;;;;;;20.55;14.73;;;15.50;99.90;;;;;;5042213;28;20026;-73
2023/06/18 03:07:06;;;;;;;21.13;14.40;;;15.50;99.90;;;;;;5041958;28;20033;-73
2023/06/18 03:09:31;;;;;;;22.42;14.15;;;15.50;99.90;;;;;;5040689;28;20120;-73
2023/06/18 03:11:57;;;;;;;26.52;15.20;;;15.40;99.90;;;;;;5041049;28;20025;-74
2023/06/18 03:14:25;;;;;;;55.53;26.50;;;15.30;99.90;;;;;;5041700;28;20026;-73
2023/06/18 03:16:50;;;;;;;39.17;20.40;;;15.30;99.90;;;;;;5038737;28;20022;-73
2023/06/18 03:19:16;;;;;;;31.42;18.55;;;15.20;99.90;;;;;;5041675;28;20109;-72
2023/06/18 03:21:42;;;;;;;24.02;15.50;;;15.10;99.90;;;;;;5040480;28;20026;-72
2023/06/18 03:24:08;;;;;;;18.55;13.15;;;15.10;99.90;;;;;;5042313;28;20033;-71
2023/06/18 03:26:36;;;;;;;18.58;13.93;;;15.10;99.90;;;;;;5040744;28;20034;-72
2023/06/18 03:29:02;;;;;;;20.52;14.25;;;15.00;99.90;;;;;;5040518;28;20042;-72
2023/06/18 03:31:28;;;;;;;25.27;17.23;;;15.10;99.90;;;;;;5041234;28;20521;-73
2023/06/18 03:33:53;;;;;;;29.92;19.13;;;15.00;99.90;;;;;;5041795;28;20048;-71
2023/06/18 03:36:19;;;;;;;35.38;22.00;;;15.00;99.90;;;;;;5041161;28;20038;-71
2023/06/18 03:38:47;;;;;;;39.47;23.70;;;15.10;99.90;;;;;;5040412;28;20029;-71
2023/06/18 03:41:14;;;;;;;45.95;26.50;;;15.10;99.90;;;;;;5041844;28;20022;-74
2023/06/18 03:43:39;;;;;;;43.70;26.20;;;15.10;99.90;;;;;;5041651;28;20026;-74
2023/06/18 03:46:05;;;;;;;48.90;28.63;;;15.10;99.90;;;;;;5041983;28;20073;-73
2023/06/18 03:48:32;;;;;;;54.53;29.30;;;15.20;99.90;;;;;;5040381;28;20025;-73
2023/06/18 03:50:57;;;;;;;48.63;28.80;;;15.40;99.90;;;;;;5039801;28;20052;-73
2023/06/18 03:53:23;;;;;;;52.30;29.98;;;15.20;99.90;;;;;;5041526;28;20029;-73
2023/06/18 03:55:48;;;;;;;51.13;29.17;;;15.40;99.90;;;;;;5043094;28;20039;-73
2023/06/18 03:58:14;;;;;;;49.90;29.58;;;15.30;99.90;;;;;;5044681;28;20032;-74
2023/06/18 04:00:39;;;;;;;46.72;28.13;;;15.40;99.90;;;;;;5044296;28;20512;-72
2023/06/18 04:03:05;;;;;;;44.55;27.52;;;15.40;99.90;;;;;;5045175;28;20030;-73
2023/06/18 04:05:31;;;;;;;42.60;27.63;;;15.40;99.90;;;;;;5044066;28;20028;-75
2023/06/18 04:07:56;;;;;;;44.53;28.45;;;15.50;99.90;;;;;;5045398;28;20033;-73
2023/06/18 04:10:22;;;;;;;46.10;29.13;;;15.50;99.90;;;;;;5043880;28;20470;-74
2023/06/18 04:12:48;;;;;;;47.15;29.63;;;15.50;99.90;;;;;;5043873;28;20025;-73
2023/06/18 04:15:13;;;;;;;44.65;29.23;;;15.60;99.90;;;;;;5043645;28;20131;-72
2023/06/18 04:17:41;;;;;;;47.58;29.25;;;15.60;99.90;;;;;;5044898;28;20433;-73
2023/06/18 04:20:07;;;;;;;44.75;28.90;;;15.60;99.90;;;;;;5044409;28;20029;-72
2023/06/18 04:22:33;;;;;;;47.30;29.55;;;15.60;99.90;;;;;;5045103;28;20037;-72
2023/06/18 04:24:59;;;;;;;43.90;29.85;;;15.70;99.90;;;;;;5044137;28;20026;-72
2023/06/18 04:27:25;;;;;;;44.17;29.50;;;15.70;99.90;;;;;;5044836;28;20029;-73
2023/06/18 04:29:51;;;;;;;43.65;28.83;;;15.70;99.90;;;;;;5044824;28;20067;-75
2023/06/18 04:32:17;;;;;;;41.22;28.92;;;15.70;99.90;;;;;;5042805;28;20029;-74
2023/06/18 04:34:42;;;;;;;44.88;28.42;;;15.80;99.90;;;;;;5043321;28;20030;-74
2023/06/18 04:37:08;;;;;;;40.25;27.05;;;15.90;99.90;;;;;;5044902;28;20053;-74
2023/06/18 04:39:33;;;;;;;46.10;29.63;;;15.90;99.90;;;;;;5044593;28;20027;-73
2023/06/18 04:41:59;;;;;;;43.28;28.58;;;16.00;99.90;;;;;;5044335;28;20496;-73
2023/06/18 04:44:25;;;;;;;42.08;28.98;;;15.90;99.90;;;;;;5044514;28;20067;-73
2023/06/18 04:46:51;;;;;;;40.97;28.75;;;16.00;99.90;;;;;;5044190;28;20060;-73
2023/06/18 04:49:17;;;;;;;42.55;28.98;;;16.00;99.90;;;;;;5042749;28;20474;-73
2023/06/18 04:51:43;;;;;;;41.28;27.90;;;16.10;99.90;;;;;;5043235;28;20021;-74
2023/06/18 04:54:09;;;;;;;41.03;27.38;;;16.10;99.90;;;;;;5043748;28;20021;-74
2023/06/18 04:56:35;;;;;;;39.38;27.05;;;16.10;99.90;;;;;;5044341;28;20037;-73
2023/06/18 04:59:01;;;;;;;42.67;27.05;;;16.20;99.90;;;;;;5044557;28;20347;-72
2023/06/18 05:01:26;;;;;;;40.30;26.10;;;16.20;99.90;;;;;;5043929;28;20053;-73
2023/06/18 05:03:52;;;;;;;34.15;23.55;;;16.30;99.90;;;;;;5043744;28;20138;-72
2023/06/18 05:06:18;;;;;;;36.38;24.98;;;16.40;99.90;;;;;;5043163;28;20056;-75
2023/06/18 05:08:44;;;;;;;34.95;23.65;;;16.30;99.90;;;;;;5044134;28;20028;-73
2023/06/18 05:11:09;;;;;;;32.85;23.33;;;16.50;99.90;;;;;;5043157;28;20478;-72
2023/06/18 05:13:35;;;;;;;31.85;21.35;;;16.50;99.90;;;;;;5043862;28;20041;-74
2023/06/18 05:16:00;;;;;;;37.80;24.63;;;16.60;99.90;;;;;;5043555;28;20486;-73
2023/06/18 05:18:26;;;;;;;33.30;22.00;;;16.70;99.90;;;;;;5042614;28;20040;-72
2023/06/18 05:20:51;;;;;;;32.08;21.25;;;16.80;99.90;;;;;;5043637;28;20497;-72
2023/06/18 05:23:17;;;;;;;29.02;20.20;;;16.90;99.90;;;;;;5043625;28;20044;-73
2023/06/18 05:25:43;;;;;;;28.23;19.65;;;17.00;99.90;;;;;;5043380;28;20029;-74
2023/06/18 05:28:09;;;;;;;31.13;20.67;;;17.00;99.90;;;;;;5043597;28;20033;-73
2023/06/18 05:30:34;;;;;;;31.65;21.58;;;17.10;99.90;;;;;;5043717;28;20037;-72
2023/06/18 05:33:00;;;;;;;33.60;22.88;;;17.10;99.90;;;;;;5043646;28;20022;-73
2023/06/18 05:35:26;;;;;;;34.58;24.52;;;17.10;99.90;;;;;;5042466;28;20049;-72
2023/06/18 05:37:51;;;;;;;37.58;25.10;;;17.20;99.90;;;;;;5043788;28;20052;-74
2023/06/18 05:40:17;;;;;;;35.35;24.90;;;17.20;99.90;;;;;;5043412;28;20025;-76
2023/06/18 05:42:42;;;;;;;41.92;28.52;;;17.20;99.90;;;;;;5043510;28;20036;-73
2023/06/18 05:45:08;;;;;;;40.70;28.98;;;17.20;99.90;;;;;;5042438;28;20029;-74
2023/06/18 05:47:34;;;;;;;39.08;26.33;;;17.30;99.90;;;;;;5041832;28;20368;-72
2023/06/18 05:50:00;;;;;;;37.47;27.45;;;17.20;99.90;;;;;;5041480;28;20053;-74
2023/06/18 05:52:25;;;;;;;35.83;25.52;;;17.30;99.90;;;;;;5043138;28;20474;-72
2023/06/18 05:54:51;;;;;;;34.17;25.02;;;17.30;99.90;;;;;;5043160;28;20063;-73
2023/06/18 05:57:17;;;;;;;38.30;26.02;;;17.30;99.90;;;;;;5042913;28;20052;-74
2023/06/18 05:59:42;;;;;;;31.17;23.77;;;17.40;99.90;;;;;;5043391;28;20025;-73
2023/06/18 06:02:08;;;;;;;30.13;22.75;;;17.40;99.90;;;;;;5043229;28;20113;-74
2023/06/18 06:04:33;;;;;;;32.80;22.48;;;17.40;99.90;;;;;;5043140;28;20081;-72
2023/06/18 06:06:59;;;;;;;29.23;22.15;;;17.50;99.90;;;;;;5043273;28;20585;-73
2023/06/18 06:09:24;;;;;;;30.40;21.77;;;17.50;99.90;;;;;;5041609;28;20419;-73
2023/06/18 06:11:50;;;;;;;26.38;20.48;;;17.60;99.90;;;;;;5041645;28;20017;-73
2023/06/18 06:14:16;;;;;;;25.90;20.67;;;17.70;99.90;;;;;;5042929;28;20101;-75
2023/06/18 06:16:41;;;;;;;28.33;20.02;;;17.70;99.90;;;;;;5041230;28;20030;-73
2023/06/18 06:19:07;;;;;;;24.95;19.30;;;17.70;99.90;;;;;;5042252;28;20433;-74
2023/06/18 06:21:33;;;;;;;25.58;19.58;;;17.80;99.90;;;;;;5041119;28;20035;-74
2023/06/18 06:23:59;;;;;;;25.92;20.58;;;17.80;99.90;;;;;;5041851;28;20021;-72
2023/06/18 06:26:25;;;;;;;28.88;20.05;;;17.80;99.90;;;;;;5041300;28;20120;-74
2023/06/18 06:28:50;;;;;;;26.45;19.20;;;17.90;99.90;;;;;;5042525;28;20083;-73
2023/06/18 06:31:16;;;;;;;21.10;17.35;;;18.00;99.90;;;;;;5042387;28;20017;-75
2023/06/18 06:33:42;;;;;;;22.90;17.73;;;18.10;99.90;;;;;;5042800;28;20029;-72
2023/06/18 06:36:09;;;;;;;22.95;18.08;;;18.20;99.90;;;;;;5042423;28;20049;-75
2023/06/18 06:38:35;;;;;;;24.73;20.17;;;18.20;99.90;;;;;;5042107;28;20014;-73
2023/06/18 06:41:01;;;;;;;26.85;20.73;;;18.30;99.90;;;;;;5041163;28;20140;-74
2023/06/18 06:43:26;;;;;;;28.17;21.48;;;18.40;99.90;;;;;;5041260;28;20029;-73
2023/06/18 06:45:55;;;;;;;22.88;18.10;;;18.50;99.90;;;;;;5041814;28;20068;-75
2023/06/18 06:48:21;;;;;;;24.58;18.63;;;18.50;99.90;;;;;;5041954;28;20037;-74
2023/06/18 06:50:46;;;;;;;21.90;17.67;;;18.60;99.90;;;;;;5040631;28;20041;-74
2023/06/18 06:53:12;;;;;;;21.75;18.52;;;18.60;99.90;;;;;;5040998;28;20026;-74
2023/06/18 06:55:38;;;;;;;22.35;18.48;;;18.70;99.90;;;;;;5042426;28;20037;-77
2023/06/18 06:58:03;;;;;;;22.23;17.75;;;18.80;99.90;;;;;;5040852;28;20040;-74
2023/06/18 07:00:29;;;;;;;21.58;18.02;;;18.80;99.90;;;;;;5040445;28;20048;-73
2023/06/18 07:02:55;;;;;;;20.58;17.02;;;18.90;99.90;;;;;;5040644;28;20034;-73
2023/06/18 07:05:30;;;;;;;22.83;17.77;;;19.00;99.90;;;;;;5040713;28;20503;-74
2023/06/18 07:07:56;;;;;;;21.58;17.30;;;19.10;99.90;;;;;;5042025;28;20091;-75
2023/06/18 07:10:22;;;;;;;20.85;17.60;;;19.20;99.90;;;;;;5042007;28;20100;-73
2023/06/18 07:12:47;;;;;;;20.25;16.65;;;19.30;99.90;;;;;;5041745;28;20430;-76
2023/06/18 07:15:13;;;;;;;22.13;18.00;;;19.40;99.90;;;;;;5041866;28;20034;-73
2023/06/18 07:17:38;;;;;;;20.77;17.50;;;19.50;99.90;;;;;;5040651;28;20072;-76
2023/06/18 07:20:05;;;;;;;20.58;17.58;;;19.60;99.90;;;;;;5040414;28;20087;-73
2023/06/18 07:22:31;;;;;;;22.42;18.40;;;19.60;99.90;;;;;;5056529;28;20018;-77
2023/06/18 07:24:58;;;;;;;20.80;17.63;;;19.70;99.90;;;;;;5042014;28;20254;-72
2023/06/18 07:27:24;;;;;;;20.67;16.85;;;19.80;99.90;;;;;;5041097;28;20026;-71
2023/06/18 07:29:50;;;;;;;22.30;18.08;;;19.90;99.90;;;;;;5042124;28;20017;-72
2023/06/18 07:32:16;;;;;;;19.55;15.73;;;20.00;99.90;;;;;;5045060;28;20029;-72
2023/06/18 07:34:42;;;;;;;20.08;15.38;;;20.00;99.90;;;;;;5045449;28;20033;-73
2023/06/18 07:37:08;;;;;;;19.27;16.52;;;20.10;99.90;;;;;;5045877;28;20085;-75
2023/06/18 07:39:33;;;;;;;21.73;15.25;;;20.20;99.90;;;;;;5045830;28;20085;-72
2023/06/18 07:41:59;;;;;;;17.35;14.48;;;20.40;99.90;;;;;;5045775;28;20049;-72
2023/06/18 07:44:25;;;;;;;14.85;13.25;;;20.50;99.90;;;;;;5045632;28;20029;-73
2023/06/18 07:46:50;;;;;;;17.50;12.77;;;20.50;99.90;;;;;;5044318;28;20029;-73
2023/06/18 07:49:16;;;;;;;16.48;12.45;;;20.70;99.90;;;;;;5059539;28;20053;-75
2023/06/18 07:51:43;;;;;;;15.35;11.73;;;20.80;99.90;;;;;;5042907;28;20397;-74
2023/06/18 07:54:08;;;;;;;14.27;11.07;;;20.90;99.90;;;;;;5044677;28;20029;-75
2023/06/18 07:56:34;;;;;;;15.02;11.95;;;21.00;99.90;;;;;;5041889;28;20040;-73
2023/06/18 07:59:00;;;;;;;15.57;11.45;;;21.10;99.90;;;;;;5044039;28;20021;-71
2023/06/18 08:01:26;;;;;;;14.02;11.30;;;21.20;99.90;;;;;;5044079;28;20056;-76
2023/06/18 08:03:51;;;;;;;12.73;11.10;;;21.30;99.90;;;;;;5042792;28;20526;-73
2023/06/18 08:06:17;;;;;;;16.42;10.52;;;21.40;99.90;;;;;;5044051;28;20026;-75
2023/06/18 08:08:42;;;;;;;13.27;9.88;;;21.50;99.90;;;;;;5044485;28;20402;-73
2023/06/18 08:11:11;;;;;;;11.88;9.57;;;21.60;99.90;;;;;;5042748;28;20029;-72
2023/06/18 08:13:36;;;;;;;12.93;9.85;;;21.60;99.90;;;;;;5044235;28;20021;-75
2023/06/18 08:16:02;;;;;;;15.52;9.75;;;21.80;99.90;;;;;;5044364;28;20077;-75
2023/06/18 08:18:28;;;;;;;12.00;9.73;;;21.80;99.90;;;;;;5042197;28;20021;-73
2023/06/18 08:20:55;;;;;;;10.02;9.00;;;21.90;99.90;;;;;;5044088;28;20104;-73
2023/06/18 08:23:20;;;;;;;14.52;11.00;;;22.00;99.90;;;;;;5041511;28;20034;-72
2023/06/18 08:25:46;;;;;;;15.18;9.10;;;22.10;99.90;;;;;;5044143;28;20021;-75
2023/06/18 08:28:11;;;;;;;13.70;9.60;;;22.10;99.90;;;;;;5041563;28;20049;-71
2023/06/18 08:30:37;;;;;;;13.18;9.50;;;22.20;99.90;;;;;;5043400;28;20785;-72
2023/06/18 08:33:06;;;;;;;10.38;8.65;;;22.30;99.90;;;;;;5042229;28;20113;-75
2023/06/18 08:35:31;;;;;;;11.18;8.18;;;22.40;99.90;;;;;;5041437;28;20033;-72
2023/06/18 08:37:57;;;;;;;12.15;8.60;;;22.40;99.90;;;;;;5042143;28;20032;-72
2023/06/18 08:40:26;;;;;;;13.70;9.23;;;22.40;99.90;;;;;;5043221;28;20040;-73
2023/06/18 08:42:51;;;;;;;14.27;8.95;;;22.50;99.90;;;;;;5043312;28;20084;-74
2023/06/18 08:45:18;;;;;;;10.73;7.95;;;22.50;99.90;;;;;;5043106;28;20033;-73
2023/06/18 08:47:48;;;;;;;13.27;8.25;;;22.60;99.90;;;;;;5042863;28;20024;-72
2023/06/18 08:50:17;;;;;;;11.65;8.98;;;22.70;99.90;;;;;;5043515;28;20044;-74
2023/06/18 08:52:47;;;;;;;12.15;8.65;;;22.70;99.90;;;;;;5042779;28;20021;-74
2023/06/18 08:55:14;;;;;;;13.25;7.90;;;22.80;99.90;;;;;;5043899;28;20152;-72
2023/06/18 08:57:53;;;;;;;11.95;8.65;;;22.80;99.90;;;;;;5044152;28;20032;-73
2023/06/18 09:00:18;;;;;;;10.18;7.97;;;22.90;99.90;;;;;;5044261;28;20477;-71
2023/06/18 09:02:45;;;;;;;10.35;7.15;;;23.00;99.90;;;;;;5042956;28;20053;-73
2023/06/18 09:05:12;;;;;;;10.60;7.18;;;23.10;99.90;;;;;;5044466;28;20029;-73
2023/06/18 09:07:38;;;;;;;8.30;6.95;;;23.20;99.90;;;;;;5042483;28;20072;-71
2023/06/18 09:10:05;;;;;;;10.88;7.05;;;23.40;99.90;;;;;;5042964;28;20029;-74
2023/06/18 09:12:31;;;;;;;8.13;6.93;;;23.50;99.90;;;;;;5039879;28;20582;-72
2023/06/18 09:14:57;;;;;;;12.68;7.43;;;23.70;99.90;;;;;;5043048;28;20029;-73
2023/06/18 09:17:23;;;;;;;9.75;7.32;;;23.80;99.90;;;;;;5041344;28;20040;-72
2023/06/18 09:19:49;;;;;;;9.68;6.95;;;23.90;99.90;;;;;;5042746;28;20033;-74
2023/06/18 09:22:17;;;;;;;10.02;6.93;;;24.00;99.90;;;;;;5042623;28;20048;-75
2023/06/18 09:24:43;;;;;;;7.90;6.93;;;24.20;99.90;;;;;;5042582;28;20425;-73
2023/06/18 09:27:09;;;;;;;7.43;6.72;;;24.20;99.90;;;;;;5042412;28;20021;-72
2023/06/18 09:29:41;;;;;;;8.38;6.97;;;24.30;99.90;;;;;;5043217;28;20085;-72
2023/06/18 09:32:08;;;;;;;9.02;6.40;;;24.30;99.90;;;;;;5041315;28;20025;-75
2023/06/18 09:34:35;;;;;;;8.57;6.85;;;24.40;99.90;;;;;;5042150;28;20033;-73
2023/06/18 09:37:03;;;;;;;7.65;6.88;;;24.40;99.90;;;;;;5042381;28;20021;-74
2023/06/18 09:39:28;;;;;;;8.38;7.00;;;24.50;99.90;;;;;;5041228;28;20021;-75
2023/06/18 09:41:55;;;;;;;9.88;7.28;;;24.50;99.90;;;;;;5041994;28;20091;-77
2023/06/18 09:44:22;;;;;;;8.15;6.57;;;24.50;99.90;;;;;;5042340;28;20491;-73
2023/06/18 09:46:58;;;;;;;8.32;6.72;;;24.50;99.90;;;;;;5043973;28;20033;-71
2023/06/18 09:49:26;;;;;;;8.75;7.20;;;24.50;99.90;;;;;;5043889;28;20072;-73
2023/06/18 09:51:54;;;;;;;8.55;6.68;;;24.50;99.90;;;;;;5043034;28;20032;-75
2023/06/18 09:54:20;;;;;;;11.52;7.38;;;24.50;99.90;;;;;;5044056;28;20029;-74
2023/06/18 09:57:02;;;;;;;10.60;7.00;;;24.60;99.90;;;;;;5043325;28;20060;-74
2023/06/18 09:59:28;;;;;;;7.88;6.57;;;24.70;99.90;;;;;;5039548;28;20037;-72
2023/06/18 10:01:55;;;;;;;10.65;6.43;;;24.70;99.90;;;;;;5041161;28;20021;-74
2023/06/18 10:04:21;;;;;;;6.82;6.13;;;24.80;99.90;;;;;;5041072;28;20048;-75
2023/06/18 10:07:01;;;;;;;8.27;5.90;;;24.80;99.90;;;;;;5040238;28;20093;-75
2023/06/18 10:09:33;;;;;;;6.60;5.90;;;24.90;99.90;;;;;;5040192;28;20040;-75
2023/06/18 10:12:01;;;;;;;6.90;5.90;;;25.00;99.90;;;;;;5041347;28;20040;-74
2023/06/18 10:14:29;;;;;;;6.72;6.03;;;25.00;99.90;;;;;;5041585;28;20018;-75
2023/06/18 10:17:04;;;;;;;8.60;6.22;;;25.10;99.90;;;;;;5040981;28;20446;-74
2023/06/18 10:19:32;;;;;;;7.45;6.10;;;25.20;99.90;;;;;;5042244;28;20052;-74
2023/06/18 10:22:00;;;;;;;7.32;5.78;;;25.30;99.90;;;;;;5041759;28;20021;-76
2023/06/18 10:24:32;;;;;;;8.20;6.10;;;25.40;99.90;;;;;;5041905;28;21405;-77
2023/06/18 10:26:58;;;;;;;10.00;6.20;;;25.50;99.90;;;;;;5041922;28;20025;-74
2023/06/18 10:29:24;;;;;;;8.95;5.90;;;25.50;99.90;;;;;;5041024;28;20453;-73
2023/06/18 10:31:50;;;;;;;8.55;6.13;;;25.60;99.90;;;;;;5041747;28;20026;-78
2023/06/18 10:34:17;;;;;;;5.68;5.13;;;25.60;99.90;;;;;;5041942;28;20033;-75
2023/06/18 10:36:45;;;;;;;7.60;5.30;;;25.60;99.90;;;;;;5041652;28;20034;-72
2023/06/18 10:39:11;;;;;;;5.18;4.68;;;25.60;99.90;;;;;;5040509;28;20083;-76
2023/06/18 10:41:37;;;;;;;5.38;4.88;;;25.60;99.90;;;;;;5040475;28;20053;-73
2023/06/18 10:44:02;;;;;;;6.82;5.13;;;25.70;99.90;;;;;;5042021;28;20034;-75
2023/06/18 10:46:33;;;;;;;6.40;4.70;;;25.70;99.90;;;;;;5041938;28;20017;-73
2023/06/18 10:49:16;;;;;;;5.45;4.80;;;25.90;99.90;;;;;;5039891;28;20020;-74
2023/06/18 10:52:12;;;;;;;5.57;5.07;;;26.00;99.90;;;;;;5040627;28;20067;-71
2023/06/18 10:54:38;;;;;;;8.40;4.82;;;26.10;99.90;;;;;;5040961;28;20013;-75
2023/06/18 10:57:04;;;;;;;7.03;5.00;;;26.20;99.90;;;;;;5039585;28;20080;-76
2023/06/18 10:59:44;;;;;;;5.82;5.00;;;26.20;99.90;;;;;;5040585;28;20029;-75
2023/06/18 11:02:11;;;;;;;6.82;4.82;;;26.20;99.90;;;;;;5041876;28;20025;-73
2023/06/18 11:04:37;;;;;;;6.75;5.20;;;26.30;99.90;;;;;;5040786;28;20450;-73
2023/06/18 11:07:19;;;;;;;6.65;4.55;;;26.40;99.90;;;;;;5041797;28;20053;-74
2023/06/18 11:09:50;;;;;;;6.50;5.32;;;26.50;99.90;;;;;;5040971;28;20025;-73
2023/06/18 11:12:36;;;;;;;6.70;5.13;;;26.50;99.90;;;;;;5041056;28;20076;-74
2023/06/18 11:15:20;;;;;;;6.78;5.10;;;26.50;99.90;;;;;;5039687;28;20503;-75
2023/06/18 11:17:50;;;;;;;;;;;26.50;99.90;;;;;;5041671;28;20041;-72
2023/06/18 11:20:20;;;;;;;5.43;4.93;;;26.60;99.90;;;;;;5039858;28;19906;-72
2023/06/18 11:22:47;;;;;;;5.38;4.82;;;26.70;99.90;;;;;;5040301;28;20079;-74
2023/06/18 11:25:14;;;;;;;8.77;5.50;;;26.80;99.90;;;;;;5041249;28;20030;-73
2023/06/18 11:27:45;;;;;;;5.60;4.47;;;26.90;99.90;;;;;;5040387;28;20040;-73
2023/06/18 11:30:12;;;;;;;6.30;4.63;;;27.10;99.90;;;;;;5041656;28;20018;-75
2023/06/18 11:32:40;;;;;;;6.20;4.78;;;27.10;99.90;;;;;;5041204;28;20049;-72
2023/06/18 11:35:07;;;;;;;6.20;4.90;;;27.20;99.90;;;;;;5041304;28;20030;-77
2023/06/18 11:37:33;;;;;;;5.00;4.47;;;27.30;99.90;;;;;;5040458;28;20053;-74
2023/06/18 11:39:59;;;;;;;6.97;5.63;;;27.50;99.90;;;;;;5039289;28;20044;-73
2023/06/18 11:42:26;;;;;;;6.45;5.30;;;27.60;99.90;;;;;;5041014;28;20131;-72
2023/06/18 11:44:54;;;;;;;7.45;4.85;;;27.70;99.90;;;;;;5040790;28;20025;-72
2023/06/18 11:47:20;;;;;;;5.70;4.60;;;27.80;99.90;;;;;;5039840;28;20030;-73
2023/06/18 11:49:47;;;;;;;6.10;4.90;;;27.90;99.90;;;;;;5041207;28;20049;-74
2023/06/18 11:52:15;;;;;;;6.03;5.10;;;28.00;99.90;;;;;;5039462;28;20013;-76
2023/06/18 11:54:42;;;;;;;6.25;4.47;;;28.10;99.90;;;;;;5040027;28;20018;-77
2023/06/18 11:57:10;;;;;;;4.88;4.10;;;28.20;99.90;;;;;;5041364;28;20037;-73
2023/06/18 11:59:36;;;;;;;5.63;4.90;;;28.30;99.90;;;;;;5039197;28;20167;-74
2023/06/18 12:02:21;;;;;;;6.93;4.80;;;28.40;99.90;;;;;;5040906;28;20026;-74
2023/06/18 12:04:48;;;;;;;6.78;4.97;;;28.50;99.90;;;;;;5039647;28;20022;-76
2023/06/18 12:07:17;;;;;;;10.25;5.10;;;28.50;99.90;;;;;;5040353;28;20051;-74
2023/06/18 12:09:44;;;;;;;5.60;4.70;;;28.50;99.90;;;;;;5040577;28;20064;-74
2023/06/18 12:12:58;;;;;;;5.13;4.63;;;28.40;99.90;;;;;;5040830;28;20060;-74
2023/06/18 12:15:50;;;;;;;6.78;5.00;;;28.30;99.90;;;;;;5034890;28;20173;-74
2023/06/18 12:18:23;;;;;;;5.18;4.47;;;28.40;99.90;;;;;;5044445;28;20025;-74
2023/06/18 12:20:49;;;;;;;5.35;4.82;;;28.60;99.90;;;;;;5043195;28;20087;-78
2023/06/18 12:23:16;;;;;;;8.32;4.72;;;28.80;99.90;;;;;;5044034;28;20071;-75
2023/06/18 12:25:42;;;;;;;6.40;4.97;;;29.00;99.90;;;;;;5043333;28;20029;-76
2023/06/18 12:28:08;;;;;;;5.60;5.00;;;29.00;99.90;;;;;;5042889;28;20036;-72
2023/06/18 12:30:39;;;;;;;6.32;5.07;;;28.90;99.90;;;;;;5044317;28;20045;-76
2023/06/18 12:33:09;;;;;;;5.53;4.90;;;28.90;99.90;;;;;;5043889;28;20056;-72
2023/06/18 12:35:35;;;;;;;6.78;4.88;;;29.00;99.90;;;;;;5043440;28;20045;-76